sensor_id;sensor_type;location;lat;lon;timestamp;pressure;altitude;pressure_sealevel;temperature;humidity
61014;BME280;46899;47.542;19.082;2024-01-25T00:00:57;100766.00;;;7.24;100.00
61014;BME280;46899;47.542;19.082;2024-01-25T00:04:00;100767.66;;;7.30;99.04
61014;BME280;46899;47.542;19.082;2024-01-25T00:07:03;100751.97;;;7.39;97.81
61014;BME280;46899;47.542;19.082;2024-01-25T00:10:07;100754.47;;;7.42;97.72
61014;BME280;46899;47.542;19.082;2024-01-25T00:13:10;100769.09;;;7.47;96.50
61014;BME280;46899;47.542;19.082;2024-01-25T00:16:13;100761.88;;;7.66;94.27
61014;BME280;46899;47.542;19.082;2024-01-25T00:19:16;100757.34;;;7.79;92.88
61014;BME280;46899;47.542;19.082;2024-01-25T00:22:19;100753.91;;;7.78;92.83
61014;BME280;46899;47.542;19.082;2024-01-25T00:25:22;100750.56;;;7.72;93.32
61014;BME280;46899;47.542;19.082;2024-01-25T00:28:26;100757.62;;;7.62;94.53
61014;BME280;46899;47.542;19.082;2024-01-25T00:31:29;100763.66;;;7.63;93.33
61014;BME280;46899;47.542;19.082;2024-01-25T00:34:33;100755.81;;;7.67;93.52
61014;BME280;46899;47.542;19.082;2024-01-25T00:37:37;100764.38;;;7.71;92.90
61014;BME280;46899;47.542;19.082;2024-01-25T00:40:40;100773.00;;;7.71;92.53
61014;BME280;46899;47.542;19.082;2024-01-25T00:43:43;100779.13;;;7.67;92.85
61014;BME280;46899;47.542;19.082;2024-01-25T00:46:47;100781.09;;;7.51;94.59
61014;BME280;46899;47.542;19.082;2024-01-25T00:49:50;100793.41;;;7.36;95.18
61014;BME280;46899;47.542;19.082;2024-01-25T00:52:53;100781.28;;;7.41;95.20
61014;BME280;46899;47.542;19.082;2024-01-25T00:55:56;100783.19;;;7.30;96.07
61014;BME280;46899;47.542;19.082;2024-01-25T00:58:59;100779.78;;;7.25;96.71
61014;BME280;46899;47.542;19.082;2024-01-25T01:02:04;100777.34;;;7.14;97.36
61014;BME280;46899;47.542;19.082;2024-01-25T01:05:12;100769.53;;;7.17;96.54
61014;BME280;46899;47.542;19.082;2024-01-25T01:08:15;100768.69;;;7.18;95.85
61014;BME280;46899;47.542;19.082;2024-01-25T01:11:18;100767.69;;;7.27;95.22
61014;BME280;46899;47.542;19.082;2024-01-25T01:14:21;100758.13;;;7.30;94.46
61014;BME280;46899;47.542;19.082;2024-01-25T01:17:24;100745.19;;;7.32;94.15
61014;BME280;46899;47.542;19.082;2024-01-25T01:20:27;100749.56;;;7.27;94.23
61014;BME280;46899;47.542;19.082;2024-01-25T01:23:30;100734.09;;;7.21;95.53
61014;BME280;46899;47.542;19.082;2024-01-25T01:26:32;100741.91;;;7.19;94.77
61014;BME280;46899;47.542;19.082;2024-01-25T01:29:37;100723.84;;;7.18;94.94
61014;BME280;46899;47.542;19.082;2024-01-25T01:32:40;100728.59;;;7.42;92.94
61014;BME280;46899;47.542;19.082;2024-01-25T01:35:43;100729.47;;;7.44;92.36
61014;BME280;46899;47.542;19.082;2024-01-25T01:38:46;100726.72;;;7.51;91.70
61014;BME280;46899;47.542;19.082;2024-01-25T01:41:49;100725.78;;;7.57;91.75
61014;BME280;46899;47.542;19.082;2024-01-25T01:44:52;100734.47;;;7.53;91.65
61014;BME280;46899;47.542;19.082;2024-01-25T01:47:56;100730.16;;;7.52;92.09
61014;BME280;46899;47.542;19.082;2024-01-25T01:50:59;100723.41;;;7.43;92.09
61014;BME280;46899;47.542;19.082;2024-01-25T01:54:06;100729.38;;;7.47;92.00
61014;BME280;46899;47.542;19.082;2024-01-25T01:57:09;100732.03;;;7.44;92.12
61014;BME280;46899;47.542;19.082;2024-01-25T02:00:14;100745.81;;;7.46;92.26
61014;BME280;46899;47.542;19.082;2024-01-25T02:03:19;100731.25;;;7.39;92.81
61014;BME280;46899;47.542;19.082;2024-01-25T02:06:25;100722.81;;;7.26;93.54
61014;BME280;46899;47.542;19.082;2024-01-25T02:09:28;100714.34;;;7.17;94.21
61014;BME280;46899;47.542;19.082;2024-01-25T02:12:31;100712.59;;;7.19;94.79
61014;BME280;46899;47.542;19.082;2024-01-25T02:15:33;100708.50;;;7.06;95.54
61014;BME280;46899;47.542;19.082;2024-01-25T02:18:36;100721.41;;;7.06;95.22
61014;BME280;46899;47.542;19.082;2024-01-25T02:21:41;100707.59;;;7.07;95.13
61014;BME280;46899;47.542;19.082;2024-01-25T02:24:44;100712.91;;;6.98;95.41
61014;BME280;46899;47.542;19.082;2024-01-25T02:27:47;100712.75;;;7.07;94.50
61014;BME280;46899;47.542;19.082;2024-01-25T02:30:50;100720.50;;;7.10;94.87
61014;BME280;46899;47.542;19.082;2024-01-25T02:33:53;100710.09;;;7.13;93.98
61014;BME280;46899;47.542;19.082;2024-01-25T02:36:56;100721.28;;;7.15;93.36
61014;BME280;46899;47.542;19.082;2024-01-25T02:39:59;100719.63;;;7.11;93.93
61014;BME280;46899;47.542;19.082;2024-01-25T02:43:02;100710.94;;;7.15;93.01
61014;BME280;46899;47.542;19.082;2024-01-25T02:46:05;100714.31;;;7.20;92.77
61014;BME280;46899;47.542;19.082;2024-01-25T02:49:08;100708.31;;;7.16;92.65
61014;BME280;46899;47.542;19.082;2024-01-25T02:52:11;100712.66;;;7.16;92.87
61014;BME280;46899;47.542;19.082;2024-01-25T02:55:14;100717.00;;;7.12;93.02
61014;BME280;46899;47.542;19.082;2024-01-25T02:58:20;100704.09;;;7.09;93.45
61014;BME280;46899;47.542;19.082;2024-01-25T03:01:23;100708.41;;;7.10;92.95
61014;BME280;46899;47.542;19.082;2024-01-25T03:04:26;100709.16;;;7.17;92.74
61014;BME280;46899;47.542;19.082;2024-01-25T03:07:29;100700.63;;;7.13;93.02
61014;BME280;46899;47.542;19.082;2024-01-25T03:10:32;100704.84;;;7.17;93.35
61014;BME280;46899;47.542;19.082;2024-01-25T03:13:35;100696.47;;;7.02;94.10
61014;BME280;46899;47.542;19.082;2024-01-25T03:16:38;100702.56;;;6.98;94.96
61014;BME280;46899;47.542;19.082;2024-01-25T03:19:41;100721.59;;;6.94;95.74
61014;BME280;46899;47.542;19.082;2024-01-25T03:22:44;100718.16;;;6.95;96.25
61014;BME280;46899;47.542;19.082;2024-01-25T03:25:47;100712.97;;;6.93;96.79
61014;BME280;46899;47.542;19.082;2024-01-25T03:28:50;100716.47;;;6.90;97.71
61014;BME280;46899;47.542;19.082;2024-01-25T03:31:53;100718.16;;;6.95;97.86
61014;BME280;46899;47.542;19.082;2024-01-25T03:34:56;100723.31;;;6.95;98.58
61014;BME280;46899;47.542;19.082;2024-01-25T03:37:59;100719.09;;;6.87;99.16
61014;BME280;46899;47.542;19.082;2024-01-25T03:41:02;100723.41;;;6.85;100.00
61014;BME280;46899;47.542;19.082;2024-01-25T03:44:05;100724.25;;;6.89;100.00
61014;BME280;46899;47.542;19.082;2024-01-25T03:47:08;100715.31;;;7.11;99.90
61014;BME280;46899;47.542;19.082;2024-01-25T03:50:11;100712.41;;;7.31;98.94
61014;BME280;46899;47.542;19.082;2024-01-25T03:53:14;100708.97;;;7.29;98.81
61014;BME280;46899;47.542;19.082;2024-01-25T03:56:18;100694.41;;;7.23;100.00
61014;BME280;46899;47.542;19.082;2024-01-25T03:59:20;100708.13;;;7.28;99.96
61014;BME280;46899;47.542;19.082;2024-01-25T04:02:23;100706.19;;;7.41;99.43
61014;BME280;46899;47.542;19.082;2024-01-25T04:05:27;100695.75;;;7.45;99.18
61014;BME280;46899;47.542;19.082;2024-01-25T04:08:30;100698.25;;;7.51;98.90
61014;BME280;46899;47.542;19.082;2024-01-25T04:11:33;100697.63;;;7.37;99.69
61014;BME280;46899;47.542;19.082;2024-01-25T04:14:35;100691.50;;;7.43;99.04
61014;BME280;46899;47.542;19.082;2024-01-25T04:17:38;100675.88;;;7.47;98.43
61014;BME280;46899;47.542;19.082;2024-01-25T04:20:42;100692.25;;;7.49;98.15
61014;BME280;46899;47.542;19.082;2024-01-25T04:23:45;100689.59;;;7.52;97.17
61014;BME280;46899;47.542;19.082;2024-01-25T04:26:48;100693.06;;;7.53;96.71
61014;BME280;46899;47.542;19.082;2024-01-25T04:29:51;100691.22;;;7.59;95.78
61014;BME280;46899;47.542;19.082;2024-01-25T04:32:54;100691.94;;;7.66;95.09
61014;BME280;46899;47.542;19.082;2024-01-25T04:35:57;100692.06;;;7.58;95.33
61014;BME280;46899;47.542;19.082;2024-01-25T04:39:00;100708.75;;;7.44;96.71
61014;BME280;46899;47.542;19.082;2024-01-25T04:42:03;100688.88;;;7.44;96.10
61014;BME280;46899;47.542;19.082;2024-01-25T04:45:07;100692.44;;;7.39;96.60
61014;BME280;46899;47.542;19.082;2024-01-25T04:48:10;100701.94;;;7.38;96.65
61014;BME280;46899;47.542;19.082;2024-01-25T04:51:17;100708.81;;;7.39;96.67
61014;BME280;46899;47.542;19.082;2024-01-25T04:54:20;100707.69;;;7.55;95.40
61014;BME280;46899;47.542;19.082;2024-01-25T04:57:23;100706.88;;;7.52;95.71
61014;BME280;46899;47.542;19.082;2024-01-25T05:00:26;100710.63;;;7.33;97.05
61014;BME280;46899;47.542;19.082;2024-01-25T05:03:28;100700.28;;;7.33;97.00
61014;BME280;46899;47.542;19.082;2024-01-25T05:06:32;100709.09;;;7.21;98.57
61014;BME280;46899;47.542;19.082;2024-01-25T05:09:35;100704.81;;;7.20;98.38
61014;BME280;46899;47.542;19.082;2024-01-25T05:12:38;100717.72;;;7.22;98.81
61014;BME280;46899;47.542;19.082;2024-01-25T05:15:41;100706.34;;;7.30;98.21
61014;BME280;46899;47.542;19.082;2024-01-25T05:18:44;100703.88;;;7.24;98.52
61014;BME280;46899;47.542;19.082;2024-01-25T05:21:48;100722.88;;;7.23;98.95
61014;BME280;46899;47.542;19.082;2024-01-25T05:24:51;100728.00;;;7.26;98.81
61014;BME280;46899;47.542;19.082;2024-01-25T05:27:55;100725.41;;;7.26;98.13
61014;BME280;46899;47.542;19.082;2024-01-25T05:30:58;100725.37;;;7.29;97.92
61014;BME280;46899;47.542;19.082;2024-01-25T05:34:04;100736.59;;;7.30;98.10
61014;BME280;46899;47.542;19.082;2024-01-25T05:37:07;100733.75;;;7.45;96.47
61014;BME280;46899;47.542;19.082;2024-01-25T05:40:10;100731.78;;;7.59;94.92
61014;BME280;46899;47.542;19.082;2024-01-25T05:43:14;100748.75;;;7.77;93.08
61014;BME280;46899;47.542;19.082;2024-01-25T05:46:16;100735.03;;;7.72;93.74
61014;BME280;46899;47.542;19.082;2024-01-25T05:49:19;100728.13;;;7.71;93.73
61014;BME280;46899;47.542;19.082;2024-01-25T05:52:23;100735.97;;;7.66;94.34
61014;BME280;46899;47.542;19.082;2024-01-25T05:55:27;100739.66;;;7.53;95.87
61014;BME280;46899;47.542;19.082;2024-01-25T05:58:29;100753.50;;;7.49;96.36
61014;BME280;46899;47.542;19.082;2024-01-25T06:01:32;100752.75;;;7.42;97.88
61014;BME280;46899;47.542;19.082;2024-01-25T06:04:35;100749.37;;;7.39;98.08
61014;BME280;46899;47.542;19.082;2024-01-25T06:07:39;100762.25;;;7.42;99.10
61014;BME280;46899;47.542;19.082;2024-01-25T06:10:43;100764.81;;;7.46;98.59
61014;BME280;46899;47.542;19.082;2024-01-25T06:13:46;100763.97;;;7.43;98.77
61014;BME280;46899;47.542;19.082;2024-01-25T06:16:49;100774.16;;;7.55;97.98
61014;BME280;46899;47.542;19.082;2024-01-25T06:19:51;100778.53;;;7.50;98.32
61014;BME280;46899;47.542;19.082;2024-01-25T06:22:55;100794.19;;;7.44;99.19
61014;BME280;46899;47.542;19.082;2024-01-25T06:25:58;100786.44;;;7.41;99.37
61014;BME280;46899;47.542;19.082;2024-01-25T06:29:01;100788.25;;;7.36;100.00
61014;BME280;46899;47.542;19.082;2024-01-25T06:32:04;100789.91;;;7.41;99.64
61014;BME280;46899;47.542;19.082;2024-01-25T06:35:15;100790.75;;;7.40;99.72
61014;BME280;46899;47.542;19.082;2024-01-25T06:38:18;100785.50;;;7.46;99.24
61014;BME280;46899;47.542;19.082;2024-01-25T06:41:21;100785.44;;;7.49;98.78
61014;BME280;46899;47.542;19.082;2024-01-25T06:44:24;100787.31;;;7.41;98.99
61014;BME280;46899;47.542;19.082;2024-01-25T06:47:27;100791.59;;;7.44;99.02
61014;BME280;46899;47.542;19.082;2024-01-25T06:50:29;100792.41;;;7.46;98.82
61014;BME280;46899;47.542;19.082;2024-01-25T06:53:33;100792.38;;;7.47;98.33
61014;BME280;46899;47.542;19.082;2024-01-25T06:56:35;100788.94;;;7.48;98.11
61014;BME280;46899;47.542;19.082;2024-01-25T06:59:39;100775.13;;;7.48;98.46
61014;BME280;46899;47.542;19.082;2024-01-25T07:02:42;100744.88;;;7.50;98.18
61014;BME280;46899;47.542;19.082;2024-01-25T07:05:45;100746.59;;;7.51;98.07
61014;BME280;46899;47.542;19.082;2024-01-25T07:08:48;100729.31;;;7.53;97.33
61014;BME280;46899;47.542;19.082;2024-01-25T07:11:52;100718.06;;;7.54;96.81
61014;BME280;46899;47.542;19.082;2024-01-25T07:14:55;100706.69;;;7.63;96.05
61014;BME280;46899;47.542;19.082;2024-01-25T07:17:58;100678.88;;;7.74;94.68
61014;BME280;46899;47.542;19.082;2024-01-25T07:21:01;100689.19;;;7.75;94.34
61014;BME280;46899;47.542;19.082;2024-01-25T07:24:05;100688.28;;;7.79;92.84
61014;BME280;46899;47.542;19.082;2024-01-25T07:27:08;100710.38;;;7.97;90.77
61014;BME280;46899;47.542;19.082;2024-01-25T07:30:13;100684.37;;;8.03;89.83
61014;BME280;46899;47.542;19.082;2024-01-25T07:33:16;100688.66;;;8.05;89.24
61014;BME280;46899;47.542;19.082;2024-01-25T07:36:19;100703.88;;;8.20;87.71
61014;BME280;46899;47.542;19.082;2024-01-25T07:39:23;100715.22;;;8.58;85.32
61014;BME280;46899;47.542;19.082;2024-01-25T07:42:26;100722.63;;;9.14;82.57
61014;BME280;46899;47.542;19.082;2024-01-25T07:45:30;100733.53;;;9.65;78.82
61014;BME280;46899;47.542;19.082;2024-01-25T07:48:34;100744.41;;;10.13;76.30
61014;BME280;46899;47.542;19.082;2024-01-25T07:51:36;100759.41;;;10.34;74.02
61014;BME280;46899;47.542;19.082;2024-01-25T07:54:39;100767.75;;;10.47;73.29
61014;BME280;46899;47.542;19.082;2024-01-25T07:57:42;100753.78;;;9.85;75.12
61014;BME280;46899;47.542;19.082;2024-01-25T08:00:45;100753.88;;;9.10;78.31
61014;BME280;46899;47.542;19.082;2024-01-25T08:03:49;100760.44;;;8.87;80.20
61014;BME280;46899;47.542;19.082;2024-01-25T08:06:52;100759.31;;;8.99;79.48
61014;BME280;46899;47.542;19.082;2024-01-25T08:09:55;100775.16;;;9.62;75.88
61014;BME280;46899;47.542;19.082;2024-01-25T08:13:00;100782.69;;;10.40;71.94
61014;BME280;46899;47.542;19.082;2024-01-25T08:16:10;100788.47;;;10.19;71.56
61014;BME280;46899;47.542;19.082;2024-01-25T08:19:13;100779.03;;;10.15;71.96
61014;BME280;46899;47.542;19.082;2024-01-25T08:22:16;100774.59;;;10.80;67.88
61014;BME280;46899;47.542;19.082;2024-01-25T08:25:24;100767.34;;;10.60;68.03
61014;BME280;46899;47.542;19.082;2024-01-25T08:28:27;100770.66;;;10.67;66.20
61014;BME280;46899;47.542;19.082;2024-01-25T08:31:30;100796.97;;;9.90;70.00
61014;BME280;46899;47.542;19.082;2024-01-25T08:34:33;100779.72;;;9.52;72.95
61014;BME280;46899;47.542;19.082;2024-01-25T08:37:37;100769.59;;;9.42;73.42
61014;BME280;46899;47.542;19.082;2024-01-25T08:40:41;100766.94;;;9.43;74.67
61014;BME280;46899;47.542;19.082;2024-01-25T08:43:44;100761.75;;;9.43;73.61
61014;BME280;46899;47.542;19.082;2024-01-25T08:46:47;100761.88;;;9.37;75.14
61014;BME280;46899;47.542;19.082;2024-01-25T08:49:50;100766.88;;;9.46;75.00
61014;BME280;46899;47.542;19.082;2024-01-25T08:52:53;100791.00;;;9.51;73.17
61014;BME280;46899;47.542;19.082;2024-01-25T08:55:56;100781.31;;;9.58;74.11
61014;BME280;46899;47.542;19.082;2024-01-25T08:58:59;100776.81;;;9.64;73.79
61014;BME280;46899;47.542;19.082;2024-01-25T09:02:02;100792.25;;;9.71;73.13
61014;BME280;46899;47.542;19.082;2024-01-25T09:05:05;100817.34;;;9.72;72.98
61014;BME280;46899;47.542;19.082;2024-01-25T09:08:09;100808.69;;;9.73;72.71
61014;BME280;46899;47.542;19.082;2024-01-25T09:11:12;100812.97;;;9.74;71.96
61014;BME280;46899;47.542;19.082;2024-01-25T09:14:15;100818.97;;;9.77;72.13
61014;BME280;46899;47.542;19.082;2024-01-25T09:17:18;100819.66;;;9.84;71.81
61014;BME280;46899;47.542;19.082;2024-01-25T09:20:24;100827.41;;;9.85;72.98
61014;BME280;46899;47.542;19.082;2024-01-25T09:23:28;100836.75;;;9.94;73.33
61014;BME280;46899;47.542;19.082;2024-01-25T09:26:30;100831.75;;;9.85;71.14
61014;BME280;46899;47.542;19.082;2024-01-25T09:29:33;100818.88;;;9.80;71.24
61014;BME280;46899;47.542;19.082;2024-01-25T09:32:36;100838.03;;;9.76;71.19
61014;BME280;46899;47.542;19.082;2024-01-25T09:35:42;100828.34;;;9.83;71.55
61014;BME280;46899;47.542;19.082;2024-01-25T09:38:50;100816.09;;;9.88;71.93
61014;BME280;46899;47.542;19.082;2024-01-25T09:41:53;100840.22;;;9.93;70.30
61014;BME280;46899;47.542;19.082;2024-01-25T09:44:56;100845.31;;;9.97;70.05
61014;BME280;46899;47.542;19.082;2024-01-25T09:47:59;100827.91;;;10.01;70.24
61014;BME280;46899;47.542;19.082;2024-01-25T09:51:02;100845.19;;;10.02;70.66
61014;BME280;46899;47.542;19.082;2024-01-25T09:54:07;100853.81;;;10.04;71.57
61014;BME280;46899;47.542;19.082;2024-01-25T09:57:14;100844.97;;;10.11;69.85
61014;BME280;46899;47.542;19.082;2024-01-25T10:00:20;100850.44;;;10.00;71.18
61014;BME280;46899;47.542;19.082;2024-01-25T10:03:23;100846.31;;;9.92;72.41
61014;BME280;46899;47.542;19.082;2024-01-25T10:06:26;100851.38;;;9.96;71.90
61014;BME280;46899;47.542;19.082;2024-01-25T10:09:38;100858.16;;;10.03;70.42
61014;BME280;46899;47.542;19.082;2024-01-25T10:12:42;100855.66;;;9.99;70.72
61014;BME280;46899;47.542;19.082;2024-01-25T10:15:45;100852.19;;;10.00;69.71
61014;BME280;46899;47.542;19.082;2024-01-25T10:18:49;100836.53;;;10.03;70.07
61014;BME280;46899;47.542;19.082;2024-01-25T10:21:55;100832.06;;;10.08;70.94
61014;BME280;46899;47.542;19.082;2024-01-25T10:24:59;100840.78;;;10.05;69.90
61014;BME280;46899;47.542;19.082;2024-01-25T10:28:03;100849.25;;;10.13;68.73
61014;BME280;46899;47.542;19.082;2024-01-25T10:31:07;100820.66;;;10.15;69.30
61014;BME280;46899;47.542;19.082;2024-01-25T10:34:13;100834.22;;;10.24;69.42
61014;BME280;46899;47.542;19.082;2024-01-25T10:37:18;100828.84;;;10.32;68.47
61014;BME280;46899;47.542;19.082;2024-01-25T10:40:23;100815.44;;;10.47;68.30
61014;BME280;46899;47.542;19.082;2024-01-25T10:43:28;100830.06;;;10.51;68.36
61014;BME280;46899;47.542;19.082;2024-01-25T10:46:34;100820.66;;;10.47;66.34
61014;BME280;46899;47.542;19.082;2024-01-25T10:49:41;100828.59;;;10.41;66.55
61014;BME280;46899;47.542;19.082;2024-01-25T10:52:44;100817.59;;;10.32;68.67
61014;BME280;46899;47.542;19.082;2024-01-25T10:55:48;100822.56;;;10.41;67.47
61014;BME280;46899;47.542;19.082;2024-01-25T10:58:51;100819.47;;;10.26;66.35
61014;BME280;46899;47.542;19.082;2024-01-25T11:01:54;100812.00;;;10.13;66.42
61014;BME280;46899;47.542;19.082;2024-01-25T11:04:58;100823.31;;;10.10;67.17
61014;BME280;46899;47.542;19.082;2024-01-25T11:08:02;100820.69;;;10.10;66.51
61014;BME280;46899;47.542;19.082;2024-01-25T11:11:06;100792.22;;;10.06;66.39
61014;BME280;46899;47.542;19.082;2024-01-25T11:14:13;100808.88;;;9.99;65.17
61014;BME280;46899;47.542;19.082;2024-01-25T11:17:22;100807.00;;;10.04;66.60
61014;BME280;46899;47.542;19.082;2024-01-25T11:20:28;100810.53;;;10.03;65.27
61014;BME280;46899;47.542;19.082;2024-01-25T11:23:31;100836.41;;;10.06;65.89
61014;BME280;46899;47.542;19.082;2024-01-25T11:26:35;100815.78;;;10.00;64.92
61014;BME280;46899;47.542;19.082;2024-01-25T11:29:38;100810.31;;;10.12;66.38
61014;BME280;46899;47.542;19.082;2024-01-25T11:32:49;100825.91;;;10.10;65.77
61014;BME280;46899;47.542;19.082;2024-01-25T11:35:55;100820.47;;;10.21;66.14
61014;BME280;46899;47.542;19.082;2024-01-25T11:38:58;100818.69;;;10.23;64.26
61014;BME280;46899;47.542;19.082;2024-01-25T11:42:01;100820.41;;;10.24;65.65
61014;BME280;46899;47.542;19.082;2024-01-25T11:45:08;100807.41;;;10.24;66.46
61014;BME280;46899;47.542;19.082;2024-01-25T11:48:11;100771.12;;;10.19;65.06
61014;BME280;46899;47.542;19.082;2024-01-25T11:51:15;100808.47;;;10.17;65.25
61014;BME280;46899;47.542;19.082;2024-01-25T11:54:18;100801.53;;;10.16;63.65
61014;BME280;46899;47.542;19.082;2024-01-25T11:57:21;100818.81;;;10.18;65.11
61014;BME280;46899;47.542;19.082;2024-01-25T12:00:24;100805.97;;;10.11;65.31
61014;BME280;46899;47.542;19.082;2024-01-25T12:03:27;100820.53;;;10.19;64.73
61014;BME280;46899;47.542;19.082;2024-01-25T12:06:30;100824.88;;;10.17;64.39
61014;BME280;46899;47.542;19.082;2024-01-25T12:09:33;100812.12;;;10.07;65.03
61014;BME280;46899;47.542;19.082;2024-01-25T12:12:36;100812.31;;;10.01;63.28
61014;BME280;46899;47.542;19.082;2024-01-25T12:15:42;100824.56;;;9.96;63.93
61014;BME280;46899;47.542;19.082;2024-01-25T12:18:45;100833.41;;;9.89;63.80
61014;BME280;46899;47.542;19.082;2024-01-25T12:21:48;100834.50;;;9.79;65.00
61014;BME280;46899;47.542;19.082;2024-01-25T12:24:55;100827.56;;;9.79;65.50
61014;BME280;46899;47.542;19.082;2024-01-25T12:28:04;100832.09;;;9.71;63.88
61014;BME280;46899;47.542;19.082;2024-01-25T12:31:08;100852.09;;;9.68;63.23
61014;BME280;46899;47.542;19.082;2024-01-25T12:34:15;100810.44;;;9.71;64.21
61014;BME280;46899;47.542;19.082;2024-01-25T12:37:19;100817.25;;;9.76;63.70
61014;BME280;46899;47.542;19.082;2024-01-25T12:40:22;100818.16;;;9.74;63.54
61014;BME280;46899;47.542;19.082;2024-01-25T12:43:25;100797.53;;;9.68;62.42
61014;BME280;46899;47.542;19.082;2024-01-25T12:46:29;100823.66;;;9.61;63.69
61014;BME280;46899;47.542;19.082;2024-01-25T12:49:35;100798.53;;;9.62;63.84
61014;BME280;46899;47.542;19.082;2024-01-25T12:52:38;100810.59;;;9.64;63.33
61014;BME280;46899;47.542;19.082;2024-01-25T12:55:42;100792.59;;;9.57;63.91
61014;BME280;46899;47.542;19.082;2024-01-25T12:58:45;100791.72;;;9.56;63.82
61014;BME280;46899;47.542;19.082;2024-01-25T13:01:48;100783.09;;;9.56;63.20
61014;BME280;46899;47.542;19.082;2024-01-25T13:04:51;100786.69;;;9.50;63.15
61014;BME280;46899;47.542;19.082;2024-01-25T13:07:56;100776.31;;;9.50;62.19
61014;BME280;46899;47.542;19.082;2024-01-25T13:10:59;100787.56;;;9.49;62.63
61014;BME280;46899;47.542;19.082;2024-01-25T13:14:01;100787.56;;;9.49;62.33
61014;BME280;46899;47.542;19.082;2024-01-25T13:17:04;100758.25;;;9.44;64.30
61014;BME280;46899;47.542;19.082;2024-01-25T13:20:10;100770.53;;;9.39;64.21
61014;BME280;46899;47.542;19.082;2024-01-25T13:23:13;100771.41;;;9.38;65.04
61014;BME280;46899;47.542;19.082;2024-01-25T13:26:16;100763.56;;;9.40;65.51
61014;BME280;46899;47.542;19.082;2024-01-25T13:29:19;100787.03;;;9.37;65.34
61014;BME280;46899;47.542;19.082;2024-01-25T13:32:22;100771.44;;;9.35;66.19
61014;BME280;46899;47.542;19.082;2024-01-25T13:35:26;100784.47;;;9.34;66.00
61014;BME280;46899;47.542;19.082;2024-01-25T13:38:29;100786.22;;;9.35;65.83
61014;BME280;46899;47.542;19.082;2024-01-25T13:41:32;100795.69;;;9.36;65.75
61014;BME280;46899;47.542;19.082;2024-01-25T13:44:35;100800.94;;;9.33;65.96
61014;BME280;46899;47.542;19.082;2024-01-25T13:47:38;100811.22;;;9.37;65.09
61014;BME280;46899;47.542;19.082;2024-01-25T13:50:41;100806.94;;;9.36;65.24
61014;BME280;46899;47.542;19.082;2024-01-25T13:53:44;100820.09;;;9.29;65.25
61014;BME280;46899;47.542;19.082;2024-01-25T13:56:46;100818.25;;;9.34;66.25
61014;BME280;46899;47.542;19.082;2024-01-25T13:59:49;100831.19;;;9.35;64.66
61014;BME280;46899;47.542;19.082;2024-01-25T14:02:53;100827.81;;;9.32;65.18
61014;BME280;46899;47.542;19.082;2024-01-25T14:05:56;100853.16;;;9.21;65.83
61014;BME280;46899;47.542;19.082;2024-01-25T14:08:59;100842.84;;;9.16;65.65
61014;BME280;46899;47.542;19.082;2024-01-25T14:12:03;100833.34;;;9.17;65.96
61014;BME280;46899;47.542;19.082;2024-01-25T14:15:06;100843.97;;;9.06;66.36
61014;BME280;46899;47.542;19.082;2024-01-25T14:18:09;100836.28;;;9.00;66.35
61014;BME280;46899;47.542;19.082;2024-01-25T14:21:12;100844.00;;;9.03;66.88
61014;BME280;46899;47.542;19.082;2024-01-25T14:24:18;100858.03;;;8.94;67.08
61014;BME280;46899;47.542;19.082;2024-01-25T14:27:21;100872.03;;;8.86;67.45
61014;BME280;46899;47.542;19.082;2024-01-25T14:30:24;100878.22;;;8.80;68.44
61014;BME280;46899;47.542;19.082;2024-01-25T14:33:27;100880.72;;;8.85;67.42
61014;BME280;46899;47.542;19.082;2024-01-25T14:36:30;100879.00;;;8.85;67.83
61014;BME280;46899;47.542;19.082;2024-01-25T14:39:33;100884.13;;;8.87;67.24
61014;BME280;46899;47.542;19.082;2024-01-25T14:42:39;100891.19;;;8.80;68.32
61014;BME280;46899;47.542;19.082;2024-01-25T14:45:42;100898.94;;;8.82;68.10
61014;BME280;46899;47.542;19.082;2024-01-25T14:48:45;100910.12;;;8.84;68.52
61014;BME280;46899;47.542;19.082;2024-01-25T14:51:48;100908.37;;;8.86;67.73
61014;BME280;46899;47.542;19.082;2024-01-25T14:54:51;100904.94;;;8.84;67.17
61014;BME280;46899;47.542;19.082;2024-01-25T14:57:54;100926.47;;;8.89;66.99
61014;BME280;46899;47.542;19.082;2024-01-25T15:00:57;100917.81;;;8.88;66.66
61014;BME280;46899;47.542;19.082;2024-01-25T15:04:00;100923.03;;;8.88;65.54
61014;BME280;46899;47.542;19.082;2024-01-25T15:07:03;100920.41;;;8.90;65.52
61014;BME280;46899;47.542;19.082;2024-01-25T15:10:06;100934.25;;;8.89;64.61
61014;BME280;46899;47.542;19.082;2024-01-25T15:13:11;100934.31;;;8.86;65.25
61014;BME280;46899;47.542;19.082;2024-01-25T15:16:14;100926.62;;;8.81;65.03
61014;BME280;46899;47.542;19.082;2024-01-25T15:19:21;100930.12;;;8.80;64.07
61014;BME280;46899;47.542;19.082;2024-01-25T15:22:24;100927.44;;;8.85;64.51
61014;BME280;46899;47.542;19.082;2024-01-25T15:25:28;100931.72;;;8.87;63.30
61014;BME280;46899;47.542;19.082;2024-01-25T15:28:31;100940.31;;;8.89;63.78
61014;BME280;46899;47.542;19.082;2024-01-25T15:31:34;100940.44;;;8.82;63.96
61014;BME280;46899;47.542;19.082;2024-01-25T15:34:37;100948.28;;;8.79;63.85
61014;BME280;46899;47.542;19.082;2024-01-25T15:37:40;100932.78;;;8.76;64.86
61014;BME280;46899;47.542;19.082;2024-01-25T15:40:44;100931.19;;;8.67;65.93
61014;BME280;46899;47.542;19.082;2024-01-25T15:43:48;100934.06;;;8.52;65.38
61014;BME280;46899;47.542;19.082;2024-01-25T15:46:50;100930.66;;;8.49;66.39
61014;BME280;46899;47.542;19.082;2024-01-25T15:49:53;100937.59;;;8.48;66.78
61014;BME280;46899;47.542;19.082;2024-01-25T15:52:56;100929.69;;;8.56;66.17
61014;BME280;46899;47.542;19.082;2024-01-25T15:55:59;100934.06;;;8.52;66.23